Time;durP1;ratioP1;P1;durP2;ratioP2;P2;SDS_P1;SDS_P2;PMS_P1;PMS_P2;Temp;Humidity;BMP_temperature;BMP_pressure;BME280_temperature;BME280_humidity;BME280_pressure;Samples;Min_cycle;Max_cycle;Signal;HPM_P1;HPM_P2
2022/09/28 06:42:26;;;;;;;1.50;0.75;;;;;;;33.44;34.26;97979.78;6149670;23;20541;-93
2022/09/28 06:44:46;;;;;;;2.17;0.90;;;;;;;34.00;34.17;97985.56;6148820;23;20302;-93
2022/09/28 06:47:15;;;;;;;1.75;1.00;;;;;;;34.46;32.24;97986.75;6130653;23;20230;-93
2022/09/28 06:49:45;;;;;;;2.40;0.60;;;;;;;34.22;32.54;97984.69;6130632;23;20151;-93
2022/09/28 06:52:11;;;;;;;1.90;0.90;;;;;;;34.24;33.76;97990.69;6132140;23;20157;-95
2022/09/28 06:54:36;;;;;;;2.33;0.82;;;;;;;34.48;33.38;97998.22;6130986;23;20206;-93
2022/09/28 06:57:02;;;;;;;9.70;1.20;;;;;;;34.67;33.15;97993.19;6131352;23;20242;-93
2022/09/28 06:59:28;;;;;;;1.42;0.82;;;;;;;34.52;33.16;97995.78;6155241;23;20191;-93
2022/09/28 07:01:54;;;;;;;0.90;0.50;;;;;;;34.34;32.52;97988.88;6130607;23;20159;-93
2022/09/28 07:04:19;;;;;;;1.30;0.70;;;;;;;34.19;32.98;97994.19;6130498;23;20596;-93
2022/09/28 07:06:46;;;;;;;1.85;0.95;;;;;;;34.13;32.59;97986.22;6130489;23;20649;-94
2022/09/28 07:09:21;;;;;;;1.50;0.88;;;;;;;33.99;33.22;97993.97;6130571;23;20217;-94
2022/09/28 07:11:47;;;;;;;1.65;0.75;;;;;;;33.78;33.49;97998.38;6132340;23;20238;-95
2022/09/28 07:14:12;;;;;;;1.52;0.98;;;;;;;33.62;33.54;98006.66;6135685;23;20226;-94
2022/09/28 07:16:40;;;;;;;1.45;0.80;;;;;;;33.46;34.52;98000.19;6130611;23;20245;-94
2022/09/28 07:19:06;;;;;;;2.75;0.77;;;;;;;33.05;34.39;98001.56;6131198;23;20222;-95
2022/09/28 07:21:32;;;;;;;2.30;1.00;;;;;;;32.80;34.82;97990.34;6130477;23;20159;-93
2022/09/28 07:23:59;;;;;;;2.22;1.05;;;;;;;32.16;35.68;97989.88;6130647;23;20190;-95
2022/09/28 07:26:48;;;;;;;2.03;0.98;;;;;;;31.60;36.59;97995.34;6134432;23;20167;-94
2022/09/28 07:29:13;;;;;;;1.75;0.90;;;;;;;31.31;38.21;97993.66;6133580;23;20163;-94
2022/09/28 07:31:39;;;;;;;8.32;1.23;;;;;;;31.30;37.99;98002.84;6137200;23;20222;-95
2022/09/28 07:34:26;;;;;;;3.55;1.33;;;;;;;31.11;38.48;98007.59;6152614;23;20298;-95
2022/09/28 07:36:56;;;;;;;3.97;1.80;;;;;;;31.00;37.44;98011.16;6156715;23;20228;-95
2022/09/28 07:39:21;;;;;;;4.97;1.48;;;;;;;30.74;37.58;98022.47;6162005;23;20166;-95
2022/09/28 07:41:47;;;;;;;6.35;1.10;;;;;;;30.48;38.21;98012.09;6157071;23;20155;-94
2022/09/28 07:44:14;;;;;;;3.10;1.50;;;;;;;30.33;38.92;98010.63;6160268;23;20154;-95
2022/09/28 07:46:46;;;;;;;2.97;1.10;;;;;;;30.05;39.82;98010.47;6160259;23;20242;-95
2022/09/28 07:49:44;;;;;;;2.83;0.93;;;;;;;30.10;39.72;98015.19;6164217;23;20155;-95
2022/09/28 07:52:11;;;;;;;1.80;1.05;;;;;;;29.92;39.50;98007.16;6150162;23;20486;-94
2022/09/28 07:54:38;;;;;;;3.35;1.52;;;;;;;29.74;40.25;98008.00;6159150;23;20247;-95
2022/09/28 07:57:07;;;;;;;3.28;1.33;;;;;;;29.60;40.33;98020.88;6161905;23;20609;-95
2022/09/28 07:59:52;;;;;;;3.78;1.30;;;;;;;29.93;40.72;98009.59;6159525;23;20144;-93
2022/09/28 08:02:19;;;;;;;2.55;1.23;;;;;;;30.15;40.20;98020.72;6156991;23;20155;-96
2022/09/28 08:04:46;;;;;;;2.78;1.27;;;;;;;30.27;39.46;98010.72;6156374;23;20187;-93
2022/09/28 08:07:14;;;;;;;2.00;0.95;;;;;;;30.01;40.15;98011.97;6156690;23;20167;-95
2022/09/28 08:09:39;;;;;;;3.22;1.40;;;;;;;30.06;39.65;98004.00;6156676;23;20151;-94
2022/09/28 08:12:07;;;;;;;2.92;1.38;;;;;;;30.18;39.87;98009.44;6156622;23;20174;-94
2022/09/28 08:14:33;;;;;;;4.53;1.35;;;;;;;30.20;39.44;98010.84;6157637;23;20265;-94
2022/09/28 08:17:03;;;;;;;2.78;1.33;;;;;;;30.09;40.15;98006.25;6156428;23;20559;-93
2022/09/28 08:21:43;;;;;;;2.38;1.38;;;;;;;29.97;40.25;98004.56;6156477;23;20237;-91
2022/09/28 08:22:18;;;;;;;5.63;1.27;;;;;;;29.95;40.35;98007.53;6157596;23;20143;-94
2022/09/28 08:24:45;;;;;;;2.47;1.00;;;;;;;29.95;39.41;97998.59;6157055;23;20187;-93
2022/09/28 08:27:11;;;;;;;2.80;1.27;;;;;;;30.02;40.41;97997.44;6156353;23;20655;-94
2022/09/28 08:29:36;;;;;;;2.85;1.05;;;;;;;30.07;39.49;97991.31;6160676;23;20213;-94
2022/09/28 08:32:03;;;;;;;2.67;1.13;;;;;;;30.18;39.34;97987.81;6156945;23;20167;-95
2022/09/28 08:34:28;;;;;;;3.78;1.20;;;;;;;30.22;40.04;97992.50;6156222;23;20627;-95
2022/09/28 08:36:58;;;;;;;3.00;1.10;;;;;;;30.45;39.55;97986.34;6156332;23;20242;-93
2022/09/28 08:39:26;;;;;;;2.47;1.30;;;;;;;30.33;38.89;97994.41;6152338;23;20170;-94
2022/09/28 08:42:01;;;;;;;2.65;1.10;;;;;;;30.46;39.78;97989.84;6156998;23;20537;-95
2022/09/28 08:44:57;;;;;;;2.30;1.35;;;;;;;30.43;38.81;97991.16;6155941;23;20154;-95
2022/09/28 08:50:28;;;;;;;2.00;1.05;;;;;;;30.67;38.04;97984.69;6160718;23;20205;-95
2022/09/28 08:53:18;;;;;;;4.07;1.42;;;;;;;30.64;38.00;97985.16;6167368;23;20167;-95
2022/09/28 08:55:45;;;;;;;2.60;1.33;;;;;;;30.65;37.98;97981.41;6165022;23;21400;-94
2022/09/28 08:58:31;;;;;;;3.20;1.27;;;;;;;31.03;38.15;97984.44;6155788;23;20162;-94
2022/09/28 09:00:58;;;;;;;4.80;1.25;;;;;;;31.30;37.69;97971.19;6158768;23;20158;-94
2022/09/28 09:03:51;;;;;;;1.38;0.70;;;;;;;31.55;37.29;97976.31;6155715;23;20159;-93
2022/09/28 09:07:09;;;;;;;;;;;;;;;;;;;;;
2022/09/28 09:10:22;;;;;;;2.58;1.17;;;;;;;31.72;36.98;97974.44;6144642;23;20217;-95
2022/09/28 09:24:56;;;;;;;3.38;1.20;;;;;;;31.60;35.33;97954.72;6169031;23;20171;-96
2022/09/28 09:27:56;;;;;;;2.63;1.15;;;;;;;31.17;35.49;97965.22;6144809;23;20210;-92
2022/09/28 09:30:23;;;;;;;3.75;1.00;;;;;;;31.24;36.04;97963.19;6155608;23;20147;-93
2022/09/28 09:33:31;;;;;;;2.00;1.00;;;;;;;31.64;34.46;97966.69;6156124;23;20241;-96
2022/09/28 09:36:05;;;;;;;2.00;0.88;;;;;;;31.53;34.38;97962.16;6156513;23;20171;-95
2022/09/28 09:38:57;;;;;;;1.15;0.63;;;;;;;31.70;32.00;97957.59;6160676;23;20190;-95
2022/09/28 09:41:50;;;;;;;1.70;0.80;;;;;;;31.57;30.54;97956.03;6159960;23;20154;-95
2022/09/28 09:45:08;;;;;;;2.45;0.93;;;;;;;32.07;30.60;97953.41;6154958;23;20199;-94
2022/09/28 09:48:04;;;;;;;1.58;0.55;;;;;;;32.36;30.42;97950.59;6148984;23;20226;-94
2022/09/28 09:50:59;;;;;;;1.50;0.65;;;;;;;32.49;30.59;97956.50;6131567;23;20544;-94
2022/09/28 09:57:39;;;;;;;;;;;;;;;;;;;;;
2022/09/28 10:14:23;;;;;;;1.10;0.50;;;;;;;33.55;26.12;97946.19;6159953;23;20612;-95
2022/09/28 10:17:35;;;;;;;;;;;;;;;;;;;;;
2022/09/28 10:20:41;;;;;;;;;;;;;;;;;;;;;
2022/09/28 10:27:46;;;;;;;0.77;0.35;;;;;;;34.38;26.51;97929.31;6011950;23;20277;-94
2022/09/28 10:30:41;;;;;;;0.60;0.32;;;;;;;34.46;26.26;97926.09;6018174;23;20169;-94
2022/09/28 10:34:25;;;;;;;1.55;0.60;;;;;;;34.28;25.73;97927.31;6016388;23;20191;-95
2022/09/28 10:37:12;;;;;;;2.50;0.50;;;;;;;34.43;26.78;97923.91;6026422;23;20230;-94
2022/09/28 10:40:20;;;;;;;0.63;0.38;;;;;;;34.39;26.18;97918.16;6028672;23;20185;-94
2022/09/28 10:43:11;;;;;;;;;;;;;;;;;;;;;
2022/09/28 10:46:13;;;;;;;;;;;;;;;;;;;;;
2022/09/28 10:52:04;;;;;;;2.67;0.82;;;;;;;34.86;25.53;97892.81;6095904;23;20172;-94
2022/09/28 11:03:34;;;;;;;1.85;0.73;;;;;;;34.93;25.48;97883.31;6162655;23;20217;-95
2022/09/28 11:08:49;;;;;;;1.20;0.40;;;;;;;34.47;26.25;97881.44;6167448;23;20241;-94
2022/09/28 11:27:00;;;;;;;1.60;0.57;;;;;;;33.24;30.03;97858.13;6174935;23;20214;-95
2022/09/28 12:06:35;;;;;;;;;;;;;;;;;;;;;
2022/09/28 12:20:10;;;;;;;;;;;;;;;;;;;;;
2022/09/28 16:12:15;;;;;;;1.17;0.30;;;;;;;30.20;32.61;97885.69;6107458;23;20152;-94
2022/09/28 16:14:59;;;;;;;0.73;0.32;;;;;;;29.80;33.49;97880.97;6104596;23;20172;-94
2022/09/28 16:17:55;;;;;;;2.05;0.50;;;;;;;29.64;33.73;97889.72;6079855;23;20177;-94
2022/09/28 16:20:53;;;;;;;1.50;0.52;;;;;;;29.70;33.56;97885.25;6105623;23;20153;-93
2022/09/28 16:27:05;;;;;;;3.17;0.68;;;;;;;29.28;34.88;97886.31;6048006;23;20613;-94
2022/09/28 16:29:43;;;;;;;4.15;0.60;;;;;;;29.13;35.25;97881.31;6024343;23;20193;-95
2022/09/28 16:39:50;;;;;;;1.95;0.52;;;;;;;28.63;36.20;97875.31;5992016;24;20259;-95
2022/09/28 16:46:42;;;;;;;;;;;;;;;;;;;;;
2022/09/28 16:49:27;;;;;;;2.03;0.75;;;;;;;28.11;37.73;97887.47;5770406;24;20229;-95
2022/09/28 16:58:08;;;;;;;;;;;;;;;;;;;;;
2022/09/28 17:00:44;;;;;;;3.72;0.80;;;;;;;27.82;38.78;97890.81;6112132;23;20198;-96
2022/09/28 17:03:26;;;;;;;4.00;0.70;;;;;;;27.87;38.25;97899.03;6107048;23;20179;-96
2022/09/28 17:05:53;;;;;;;2.60;0.90;;;;;;;27.81;38.76;97884.59;6104703;23;20207;-94
2022/09/28 17:08:37;;;;;;;8.50;0.95;;;;;;;27.65;38.95;97900.44;6108342;23;20155;-96
2022/09/28 17:11:21;;;;;;;2.38;0.65;;;;;;;27.51;39.38;97893.53;6132060;23;20147;-96
2022/09/28 17:14:07;;;;;;;5.32;0.50;;;;;;;27.10;40.29;97897.47;6107466;23;20151;-95
2022/09/28 17:16:57;;;;;;;3.00;0.80;;;;;;;27.14;40.13;97904.09;6108166;23;20176;-95
2022/09/28 17:19:24;;;;;;;1.80;0.55;;;;;;;26.82;40.58;97911.28;6092012;23;20155;-93
2022/09/28 17:21:52;;;;;;;5.25;0.60;;;;;;;26.73;40.66;97907.13;6131738;23;20147;-94
2022/09/28 17:25:17;;;;;;;3.70;0.93;;;;;;;26.66;41.18;97902.81;6112141;23;20182;-96
2022/09/28 17:28:17;;;;;;;2.25;0.57;;;;;;;26.70;40.92;97912.91;6035487;23;20158;-96
2022/09/28 17:31:05;;;;;;;2.17;0.75;;;;;;;26.78;40.84;97914.59;6024483;23;20156;-96
2022/09/28 17:33:58;;;;;;;2.97;1.00;;;;;;;26.73;40.99;97922.41;5967003;23;20165;-94
2022/09/28 17:37:20;;;;;;;5.38;1.42;;;;;;;26.73;40.94;97922.41;6084066;23;20515;-94
2022/09/28 17:40:34;;;;;;;2.50;1.38;;;;;;;26.82;40.69;97921.19;6102951;23;20187;-96
2022/09/28 17:43:28;;;;;;;1.40;0.70;;;;;;;26.73;41.17;97927.78;6103252;23;20186;-96
2022/09/28 17:49:38;;;;;;;1.85;0.50;;;;;;;26.78;41.02;97919.97;5995027;23;20176;-93
2022/09/28 17:52:14;;;;;;;2.65;0.45;;;;;;;26.80;40.93;97925.97;6015900;23;20238;-95
2022/09/28 17:55:42;;;;;;;;;;;;;;;;;;;;;
2022/09/28 18:01:59;;;;;;;2.45;0.50;;;;;;;26.56;41.12;97922.06;5877267;24;20222;-95
2022/09/28 18:09:56;;;;;;;;;;;;;;;;;;;;;
2022/09/28 18:19:23;;;;;;;4.57;0.97;;;;;;;26.48;41.72;97934.91;5601175;25;20169;-96
2022/09/28 18:22:07;;;;;;;;;;;;;;;;;;;;;
2022/09/28 18:25:09;;;;;;;0.95;0.50;;;;;;;26.36;41.61;97948.19;5714198;24;20716;-95
2022/09/28 18:28:20;;;;;;;3.20;0.70;;;;;;;26.41;41.72;97939.47;5917541;24;20167;-95
2022/09/28 18:30:55;;;;;;;1.87;0.40;;;;;;;26.39;41.66;97957.69;5930980;24;20672;-95
2022/09/28 18:40:43;;;;;;;2.77;0.70;;;;;;;25.81;42.16;97959.31;5793592;24;20174;-94
2022/09/28 18:44:38;;;;;;;;;;;;;;;;;;;;;
2022/09/28 18:47:13;;;;;;;1.43;0.30;;;;;;;25.73;42.80;97968.41;5926452;24;20239;-94
2022/09/28 18:53:29;;;;;;;2.70;0.50;;;;;;;25.60;43.16;97961.13;5931242;24;20262;-93
2022/09/28 19:42:59;;;;;;;;;;;;;;;;;;;;;
2022/09/28 19:45:45;;;;;;;2.83;0.53;;;;;;;24.41;44.20;98006.34;5650979;25;20246;-95
2022/09/28 19:49:09;;;;;;;;;;;;;;;;;;;;;
2022/09/28 19:51:34;;;;;;;5.60;0.87;;;;;;;24.43;43.79;98009.63;5806710;24;20258;-93
2022/09/28 19:54:12;;;;;;;2.47;0.67;;;;;;;24.40;43.64;98008.19;5855890;24;20263;-94
2022/09/28 20:07:50;;;;;;;;;;;;;;;;;;;;;
2022/09/28 20:43:22;;;;;;;5.60;0.60;;;;;;;24.06;44.14;98034.00;5747785;24;20176;-94
2022/09/28 20:46:20;;;;;;;;;;;;;;;;;;;;;
2022/09/28 20:49:03;;;;;;;;;;;;;;;;;;;;;
2022/09/28 20:51:39;;;;;;;1.47;0.60;;;;;;;23.81;44.68;98039.78;5853407;24;20252;-92
2022/09/28 20:54:05;;;;;;;0.70;0.40;;;;;;;23.81;45.13;98036.25;5890432;24;20167;-94
2022/09/28 20:56:51;;;;;;;1.50;0.60;;;;;;;23.72;45.71;98032.88;5959186;24;20699;-93
2022/09/28 20:59:27;;;;;;;;;;;;;;;;;;;;;
2022/09/28 21:02:03;;;;;;;4.10;0.50;;;;;;;23.79;45.21;98039.13;6128167;23;20219;-94
2022/09/28 21:04:44;;;;;;;;;;;;;;;;;;;;;
2022/09/28 21:07:10;;;;;;;2.30;0.80;;;;;;;23.58;46.12;98031.09;6128172;23;20227;-93
2022/09/28 21:09:36;;;;;;;0.80;0.30;;;;;;;23.48;46.40;98030.53;6101955;23;20602;-94
2022/09/28 21:12:24;;;;;;;0.80;0.50;;;;;;;23.48;46.16;98030.53;6102123;23;20562;-94
2022/09/28 21:14:53;;;;;;;1.00;0.30;;;;;;;23.52;46.13;98026.50;6127540;23;20201;-94
2022/09/28 21:17:36;;;;;;;;;;;;;;;;;;;;;
2022/09/28 21:20:35;;;;;;;;;;;;;;;;;;;;;
2022/09/28 21:23:03;;;;;;;3.70;0.73;;;;;;;23.49;45.75;98037.56;6128339;23;20227;-95
2022/09/28 21:25:34;;;;;;;1.40;0.60;;;;;;;23.51;45.56;98040.88;6101797;23;20178;-93
2022/09/28 21:28:47;;;;;;;0.70;0.30;;;;;;;23.39;46.33;98045.06;6102004;23;20548;-94
2022/09/28 21:31:34;;;;;;;;;;;;;;;;;;;;;
2022/09/28 21:34:10;;;;;;;7.60;0.70;;;;;;;23.26;46.81;98060.91;6127845;23;20211;-93
2022/09/28 21:36:53;;;;;;;1.07;0.60;;;;;;;23.24;46.72;98046.91;6101499;23;20651;-95
2022/09/28 21:42:51;;;;;;;1.93;0.50;;;;;;;23.05;46.82;98055.50;5999662;23;20169;-93
2022/09/28 21:45:38;;;;;;;2.47;0.63;;;;;;;23.16;46.93;98055.88;6096647;23;20151;-93
2022/09/28 21:48:04;;;;;;;1.13;0.50;;;;;;;23.34;46.37;98050.13;6101321;23;20580;-93
2022/09/28 21:51:18;;;;;;;1.80;0.50;;;;;;;23.34;46.45;98051.97;6101253;23;20187;-93
2022/09/28 21:54:19;;;;;;;;;;;;;;;;;;;;;
2022/09/28 21:57:14;;;;;;;;;;;;;;;;;;;;;
2022/09/28 22:00:03;;;;;;;1.10;0.53;;;;;;;23.45;47.15;98046.16;6126522;23;20242;-94
2022/09/28 22:02:30;;;;;;;1.37;0.50;;;;;;;23.59;46.34;98047.94;6101219;23;20148;-92
2022/09/28 22:05:29;;;;;;;;;;;;;;;;;;;;;
2022/09/28 22:09:10;;;;;;;;;;;;;;;;;;;;;
2022/09/28 22:14:45;;;;;;;3.20;0.60;;;;;;;23.51;47.05;98037.38;5995295;23;20265;-94
2022/09/28 22:17:12;;;;;;;1.40;0.53;;;;;;;23.43;47.25;98045.50;6067494;23;20264;-92
2022/09/28 22:19:40;;;;;;;1.37;0.63;;;;;;;23.54;46.83;98039.66;6066894;23;20165;-93
2022/09/28 22:26:45;;;;;;;1.37;0.60;;;;;;;23.57;47.33;98034.78;6002710;23;20169;-94
2022/09/28 22:33:21;;;;;;;1.03;0.40;;;;;;;23.60;47.28;98034.41;5925785;24;20176;-94
2022/09/28 22:46:18;;;;;;;;;;;;;;;;;;;;;
2022/09/28 22:49:33;;;;;;;1.63;0.83;;;;;;;23.61;47.55;98046.75;5950058;24;20231;-93
2022/09/28 22:52:05;;;;;;;1.33;0.60;;;;;;;23.75;47.72;98039.69;5958659;24;20171;-91
2022/09/28 22:54:46;;;;;;;;;;;;;;;;;;;;;
2022/09/28 22:57:28;;;;;;;1.57;0.60;;;;;;;23.75;47.31;98043.22;5982249;24;20266;-93
2022/09/28 23:03:22;;;;;;;;;;;;;;;;;;;;;
2022/09/28 23:06:40;;;;;;;2.63;0.73;;;;;;;23.70;47.61;98047.47;6126565;23;20345;-95
2022/09/28 23:09:46;;;;;;;;;;;;;;;;;;;;;
2022/09/28 23:13:40;;;;;;;;;;;;;;;;;;;;;
2022/09/28 23:16:37;;;;;;;1.63;0.50;;;;;;;23.51;48.46;98040.03;5976817;24;20757;-95
2022/09/28 23:19:05;;;;;;;1.07;0.43;;;;;;;23.56;48.58;98045.66;5920667;24;20587;-94
2022/09/28 23:21:52;;;;;;;1.23;0.50;;;;;;;23.46;49.54;98051.31;5983614;24;20183;-93
2022/09/28 23:24:17;;;;;;;7.13;0.80;;;;;;;23.37;49.97;98051.63;6031893;23;20165;-93
2022/09/28 23:26:48;;;;;;;1.30;0.50;;;;;;;23.29;50.59;98049.84;6050860;23;20569;-94
2022/09/28 23:29:56;;;;;;;3.03;0.80;;;;;;;23.30;50.71;98037.28;6103337;23;20179;-94
2022/09/28 23:32:25;;;;;;;2.60;0.90;;;;;;;23.24;51.39;98046.91;6117428;23;20222;-94
2022/09/28 23:35:26;;;;;;;1.27;0.47;;;;;;;23.23;51.10;98047.91;6103266;23;20160;-96
2022/09/28 23:43:59;;;;;;;1.57;0.67;;;;;;;23.24;51.96;98057.59;6010964;23;20561;-94
2022/09/28 23:46:44;;;;;;;1.33;0.53;;;;;;;23.26;51.95;98060.91;5988082;23;20162;-95
2022/09/28 23:49:10;;;;;;;2.43;0.83;;;;;;;23.27;52.00;98058.03;5987168;23;20198;-92
2022/09/28 23:51:41;;;;;;;1.73;0.60;;;;;;;23.36;51.79;98061.44;5987744;23;20590;-94
2022/09/28 23:54:46;;;;;;;1.83;0.73;;;;;;;23.33;51.18;98055.63;5988400;23;20257;-94
2022/09/28 23:57:20;;;;;;;1.97;0.70;;;;;;;23.32;51.25;98059.34;6010020;23;20333;-92
